Time;durP1;ratioP1;P1;durP2;ratioP2;P2;SDS_P1;SDS_P2;PMS_P1;PMS_P2;Temp;Humidity;BMP_temperature;BMP_pressure;BME280_temperature;BME280_humidity;BME280_pressure;Samples;Min_cycle;Max_cycle;Signal;HPM_P1;HPM_P2
2021/03/14 00:01:22;;;;;;;11.15;7.25;;;6.40;99.90;;;;;;5012180;28;20030;-79
2021/03/14 00:03:48;;;;;;;11.73;6.55;;;6.30;99.90;;;;;;5010512;28;20030;-79
2021/03/14 00:06:14;;;;;;;13.80;7.82;;;6.30;99.90;;;;;;5010667;28;20321;-79
2021/03/14 00:08:40;;;;;;;11.18;7.38;;;6.20;99.90;;;;;;5011975;28;20049;-80
2021/03/14 00:11:07;;;;;;;13.73;7.57;;;6.20;99.90;;;;;;5014779;28;20026;-80
2021/03/14 00:13:35;;;;;;;15.38;8.63;;;6.20;99.90;;;;;;5015596;28;20029;-79
2021/03/14 00:16:03;;;;;;;17.48;9.02;;;6.10;99.90;;;;;;5014008;28;20484;-80
2021/03/14 00:18:31;;;;;;;17.60;10.05;;;6.10;99.90;;;;;;5014172;28;20458;-79
2021/03/14 00:20:58;;;;;;;15.75;9.65;;;6.00;99.90;;;;;;5013912;28;20101;-79
2021/03/14 00:23:24;;;;;;;17.17;10.52;;;6.00;99.90;;;;;;5014004;28;20101;-79
2021/03/14 00:25:50;;;;;;;18.83;11.20;;;6.00;99.90;;;;;;5015337;28;20038;-79
2021/03/14 00:28:18;;;;;;;15.93;9.00;;;6.00;99.90;;;;;;5015419;28;20072;-78
2021/03/14 00:30:44;;;;;;;16.48;8.70;;;6.00;99.90;;;;;;5014773;28;20040;-78
2021/03/14 00:33:10;;;;;;;14.48;8.40;;;5.90;99.90;;;;;;5014915;28;20030;-80
2021/03/14 00:35:36;;;;;;;10.70;7.38;;;5.90;99.90;;;;;;5015031;28;20030;-79
2021/03/14 00:38:02;;;;;;;14.93;7.88;;;5.80;99.90;;;;;;5015172;28;20423;-79
2021/03/14 00:40:28;;;;;;;15.75;8.57;;;5.80;99.90;;;;;;5014539;28;20045;-79
2021/03/14 00:42:57;;;;;;;12.68;7.43;;;5.70;99.90;;;;;;5014790;28;20096;-79
2021/03/14 00:45:23;;;;;;;14.23;7.70;;;5.70;99.90;;;;;;5014836;28;20030;-79
2021/03/14 00:47:48;;;;;;;11.55;7.15;;;5.70;99.90;;;;;;5013548;28;20101;-78
2021/03/14 00:50:15;;;;;;;11.10;6.88;;;5.70;99.90;;;;;;5013601;28;20109;-79
2021/03/14 00:52:41;;;;;;;14.30;7.57;;;5.60;99.90;;;;;;5014678;28;20022;-78
2021/03/14 00:55:07;;;;;;;10.23;6.90;;;5.60;99.90;;;;;;5014795;28;20033;-79
2021/03/14 00:57:32;;;;;;;12.73;7.07;;;5.60;99.90;;;;;;5013522;28;20032;-79
2021/03/14 00:59:58;;;;;;;12.80;7.20;;;5.70;99.90;;;;;;5014680;28;20109;-79
2021/03/14 01:02:24;;;;;;;14.43;6.88;;;5.70;99.90;;;;;;5013156;28;20445;-79
2021/03/14 01:04:49;;;;;;;14.20;7.82;;;5.70;99.90;;;;;;5013186;28;20099;-79
2021/03/14 01:07:15;;;;;;;13.75;7.03;;;5.70;99.90;;;;;;5013481;28;20041;-80
2021/03/14 01:09:41;;;;;;;13.77;8.07;;;5.70;99.90;;;;;;5013162;28;20116;-79
2021/03/14 01:12:07;;;;;;;13.75;7.82;;;5.80;99.90;;;;;;5012005;28;20018;-79
2021/03/14 01:14:34;;;;;;;11.80;6.90;;;5.80;99.90;;;;;;5014250;28;20438;-78
2021/03/14 01:17:00;;;;;;;14.20;9.27;;;5.80;99.90;;;;;;5012842;28;20037;-78
2021/03/14 01:19:25;;;;;;;14.73;7.53;;;5.80;99.90;;;;;;5014361;28;20502;-79
2021/03/14 01:21:51;;;;;;;11.82;6.95;;;5.80;99.90;;;;;;5013691;28;20026;-78
2021/03/14 01:24:17;;;;;;;11.88;6.88;;;5.90;99.90;;;;;;5013113;28;20365;-79
2021/03/14 01:26:42;;;;;;;9.32;6.18;;;5.90;99.90;;;;;;5012375;28;20034;-78
2021/03/14 01:29:08;;;;;;;12.30;6.63;;;5.90;99.90;;;;;;5012906;28;20026;-79
2021/03/14 01:31:34;;;;;;;8.73;5.75;;;5.90;99.90;;;;;;5013972;28;20083;-79
2021/03/14 01:33:59;;;;;;;6.15;4.35;;;5.90;99.90;;;;;;5012685;28;20044;-80
2021/03/14 01:36:25;;;;;;;6.72;4.38;;;5.90;99.90;;;;;;5012859;28;20097;-79
2021/03/14 01:38:51;;;;;;;6.10;3.40;;;5.90;99.90;;;;;;5012759;28;20025;-79
2021/03/14 01:41:16;;;;;;;5.72;3.15;;;5.90;99.90;;;;;;5011217;28;20022;-79
2021/03/14 01:43:42;;;;;;;2.72;2.53;;;5.80;99.60;;;;;;5012806;28;20027;-79
2021/03/14 01:46:09;;;;;;;5.13;2.83;;;5.80;97.60;;;;;;5011350;28;20037;-79
2021/03/14 01:48:36;;;;;;;5.93;2.55;;;5.70;95.00;;;;;;5012594;28;20117;-79
2021/03/14 01:51:03;;;;;;;3.47;2.35;;;5.70;94.10;;;;;;5012398;28;20036;-79
2021/03/14 01:53:30;;;;;;;7.07;2.50;;;5.70;94.90;;;;;;5012180;28;20025;-80
2021/03/14 01:55:56;;;;;;;3.30;2.40;;;5.60;94.30;;;;;;5013633;28;20026;-79
2021/03/14 01:58:23;;;;;;;4.63;2.88;;;5.60;92.80;;;;;;5011289;28;20022;-78
2021/03/14 02:00:52;;;;;;;2.90;2.65;;;5.50;91.50;;;;;;5011768;28;20080;-79
2021/03/14 02:03:22;;;;;;;4.18;2.20;;;5.40;91.10;;;;;;5012047;28;20068;-79
2021/03/14 02:05:49;;;;;;;3.90;2.78;;;5.50;89.00;;;;;;5012187;28;20076;-80
2021/03/14 02:08:15;;;;;;;3.03;2.38;;;5.40;88.20;;;;;;5012697;28;20025;-79
2021/03/14 02:10:41;;;;;;;3.58;1.98;;;5.40;88.50;;;;;;5010987;28;20567;-79
2021/03/14 02:13:24;;;;;;;4.05;2.20;;;5.30;87.80;;;;;;5012623;28;20068;-79
2021/03/14 02:16:09;;;;;;;6.10;2.00;;;5.30;85.80;;;;;;5011546;28;20030;-79
2021/03/14 02:18:38;;;;;;;3.90;2.80;;;5.30;87.70;;;;;;5008062;28;20092;-80
2021/03/14 02:21:04;;;;;;;2.65;2.20;;;5.30;87.70;;;;;;5011511;28;20088;-80
2021/03/14 02:23:43;;;;;;;3.35;2.22;;;5.20;87.50;;;;;;5010022;28;20025;-80
2021/03/14 02:26:19;;;;;;;2.72;1.80;;;5.20;86.20;;;;;;5008401;28;20044;-80
2021/03/14 02:28:47;;;;;;;4.90;1.77;;;5.20;87.00;;;;;;5008369;28;20022;-80
2021/03/14 02:31:16;;;;;;;2.28;2.00;;;5.20;87.00;;;;;;5008463;28;20030;-81
2021/03/14 02:33:43;;;;;;;4.63;2.05;;;5.10;87.30;;;;;;5010224;28;20036;-81
2021/03/14 02:36:11;;;;;;;2.97;2.47;;;5.10;88.00;;;;;;5010906;28;20032;-81
2021/03/14 02:38:39;;;;;;;5.22;2.00;;;5.10;88.30;;;;;;5011654;28;20030;-81
2021/03/14 02:41:06;;;;;;;2.35;1.73;;;5.10;87.90;;;;;;5011507;28;20502;-79
2021/03/14 02:43:34;;;;;;;3.58;2.10;;;5.00;88.10;;;;;;5012585;28;20410;-80
2021/03/14 02:46:01;;;;;;;2.53;2.17;;;5.00;88.90;;;;;;5010276;28;20080;-80
2021/03/14 02:48:27;;;;;;;2.22;2.03;;;5.00;90.20;;;;;;5011557;28;20025;-80
2021/03/14 02:50:55;;;;;;;2.67;2.47;;;4.90;91.30;;;;;;5011308;28;20033;-80
2021/03/14 02:53:22;;;;;;;3.05;1.98;;;4.90;91.70;;;;;;5011528;28;20065;-79
2021/03/14 02:55:48;;;;;;;3.70;1.90;;;4.90;91.90;;;;;;5009752;28;20026;-79
2021/03/14 02:58:15;;;;;;;2.95;2.40;;;4.90;93.00;;;;;;5011399;28;20152;-79
2021/03/14 03:00:42;;;;;;;2.15;1.98;;;4.90;93.10;;;;;;5009641;28;20372;-79
2021/03/14 03:03:08;;;;;;;3.22;1.83;;;4.90;93.70;;;;;;5010069;28;20026;-79
2021/03/14 03:05:34;;;;;;;3.03;2.10;;;4.80;93.50;;;;;;5010281;28;20172;-80
2021/03/14 03:08:01;;;;;;;2.17;1.77;;;4.90;94.20;;;;;;5012485;28;20484;-79
2021/03/14 03:10:41;;;;;;;2.63;1.85;;;4.80;94.10;;;;;;5012435;28;20021;-79
2021/03/14 03:13:08;;;;;;;2.25;1.70;;;4.80;94.20;;;;;;5010787;28;20041;-79
2021/03/14 03:15:34;;;;;;;1.95;1.42;;;4.80;95.20;;;;;;5009074;28;20049;-79
2021/03/14 03:18:01;;;;;;;3.17;1.65;;;4.80;95.00;;;;;;5010329;28;20025;-79
2021/03/14 03:20:27;;;;;;;3.25;1.90;;;4.80;94.60;;;;;;5010331;28;20084;-79
2021/03/14 03:22:54;;;;;;;3.90;1.67;;;4.80;95.00;;;;;;5008836;28;20506;-80
2021/03/14 03:25:21;;;;;;;1.98;1.48;;;4.80;95.40;;;;;;5008728;28;20044;-80
2021/03/14 03:27:47;;;;;;;4.35;2.03;;;4.80;95.60;;;;;;5008982;28;20057;-80
2021/03/14 03:30:15;;;;;;;3.00;1.90;;;4.70;95.60;;;;;;5012288;28;20105;-80
2021/03/14 03:32:41;;;;;;;2.65;2.42;;;4.70;96.30;;;;;;5012096;28;20029;-80
2021/03/14 03:35:09;;;;;;;3.10;1.77;;;4.70;96.70;;;;;;5012105;28;20438;-80
2021/03/14 03:37:36;;;;;;;2.58;1.70;;;4.60;96.80;;;;;;5011014;28;20479;-80
2021/03/14 03:40:08;;;;;;;2.30;2.10;;;4.70;96.00;;;;;;5010719;28;20030;-80
2021/03/14 03:42:40;;;;;;;4.77;2.50;;;4.70;95.80;;;;;;5011038;28;20018;-79
2021/03/14 03:45:07;;;;;;;2.55;2.25;;;4.70;95.10;;;;;;5015057;28;20076;-79
2021/03/14 03:47:35;;;;;;;2.70;2.20;;;4.70;95.50;;;;;;5014564;28;20014;-79
2021/03/14 03:50:01;;;;;;;2.20;2.00;;;4.70;95.80;;;;;;5015938;28;20036;-80
2021/03/14 03:52:28;;;;;;;3.58;2.65;;;4.70;94.90;;;;;;5014783;28;20073;-80
2021/03/14 03:54:54;;;;;;;2.83;2.58;;;4.70;94.60;;;;;;5015494;28;20029;-80
2021/03/14 03:57:21;;;;;;;2.72;1.88;;;4.70;94.90;;;;;;5014664;28;20022;-79
2021/03/14 03:59:49;;;;;;;4.10;1.90;;;4.70;94.40;;;;;;5015805;28;20038;-81
2021/03/14 04:02:15;;;;;;;2.22;1.73;;;4.70;94.50;;;;;;5014442;28;20025;-80
2021/03/14 04:04:43;;;;;;;2.78;1.90;;;4.70;94.70;;;;;;5015945;28;20072;-81
2021/03/14 04:07:10;;;;;;;3.53;1.67;;;4.70;95.00;;;;;;5012564;28;20526;-80
2021/03/14 04:09:38;;;;;;;2.28;1.88;;;4.60;95.20;;;;;;5015370;28;20034;-80
2021/03/14 04:12:06;;;;;;;4.13;1.70;;;4.60;95.00;;;;;;5015672;28;20026;-81
2021/03/14 04:14:33;;;;;;;2.72;2.53;;;4.60;95.10;;;;;;5015639;28;20058;-81
2021/03/14 04:16:59;;;;;;;2.92;2.60;;;4.60;95.40;;;;;;5014107;28;20506;-81
2021/03/14 04:19:28;;;;;;;3.70;2.45;;;4.60;95.50;;;;;;5015490;28;20029;-81
2021/03/14 04:21:56;;;;;;;2.50;2.30;;;4.50;96.20;;;;;;5015119;28;20112;-80
2021/03/14 04:24:24;;;;;;;4.50;2.30;;;4.50;96.40;;;;;;5013825;28;20018;-80
2021/03/14 04:26:51;;;;;;;5.32;3.10;;;4.50;96.80;;;;;;5013606;28;20128;-79
2021/03/14 04:29:19;;;;;;;5.35;2.90;;;4.50;96.30;;;;;;5015197;28;20030;-79
2021/03/14 04:31:47;;;;;;;3.58;2.78;;;4.50;96.50;;;;;;5013970;28;20364;-79
2021/03/14 04:34:18;;;;;;;3.58;2.50;;;4.50;96.80;;;;;;5015329;28;20034;-79
2021/03/14 04:36:46;;;;;;;5.00;2.63;;;4.50;96.40;;;;;;5013978;28;20033;-79
2021/03/14 04:39:14;;;;;;;2.90;2.55;;;4.50;96.50;;;;;;5015273;28;20498;-79
2021/03/14 04:41:42;;;;;;;3.80;2.55;;;4.50;96.90;;;;;;5014192;28;20026;-79
2021/03/14 04:44:09;;;;;;;5.03;2.88;;;4.60;96.50;;;;;;5013690;28;20507;-79
2021/03/14 04:46:35;;;;;;;3.47;2.80;;;4.50;96.50;;;;;;5013679;28;20140;-79
2021/03/14 04:49:01;;;;;;;3.83;2.95;;;4.50;95.60;;;;;;5014824;28;20021;-80
2021/03/14 04:51:29;;;;;;;4.10;2.60;;;4.60;95.60;;;;;;5013583;28;20026;-79
2021/03/14 04:53:57;;;;;;;5.20;2.28;;;4.60;96.10;;;;;;5014830;28;20475;-79
2021/03/14 04:56:26;;;;;;;3.65;2.40;;;4.60;95.20;;;;;;5012972;28;20026;-79
2021/03/14 04:58:53;;;;;;;5.75;2.05;;;4.60;94.80;;;;;;5013250;28;20036;-79
2021/03/14 05:01:20;;;;;;;4.13;2.10;;;4.60;94.00;;;;;;5013576;28;20047;-79
2021/03/14 05:03:51;;;;;;;3.05;2.00;;;4.60;94.90;;;;;;5013269;28;20395;-80
2021/03/14 05:06:19;;;;;;;2.72;2.05;;;4.60;94.70;;;;;;5013388;28;20424;-80
2021/03/14 05:08:45;;;;;;;2.25;2.03;;;4.60;95.00;;;;;;5013045;28;20034;-80
2021/03/14 05:11:20;;;;;;;7.80;3.67;;;4.50;95.30;;;;;;5013258;28;20018;-80
2021/03/14 05:13:47;;;;;;;3.22;2.72;;;4.50;95.10;;;;;;5014370;28;20058;-79
2021/03/14 05:16:14;;;;;;;4.13;2.70;;;4.50;94.70;;;;;;5013172;28;20450;-80
2021/03/14 05:18:42;;;;;;;6.53;3.03;;;4.60;93.90;;;;;;5014234;28;20030;-80
2021/03/14 05:21:08;;;;;;;4.03;2.67;;;4.50;94.80;;;;;;5014291;28;20014;-79
2021/03/14 05:23:35;;;;;;;6.35;3.50;;;4.50;94.80;;;;;;5009356;28;20036;-81
2021/03/14 05:26:02;;;;;;;3.50;3.22;;;4.50;94.80;;;;;;5010733;28;20045;-80
2021/03/14 05:28:29;;;;;;;3.88;3.05;;;4.60;95.00;;;;;;5011884;28;20032;-80
2021/03/14 05:30:55;;;;;;;5.55;3.28;;;4.50;94.80;;;;;;5007249;28;20080;-80
2021/03/14 05:33:21;;;;;;;5.53;3.10;;;4.60;94.80;;;;;;5011949;28;20026;-80
2021/03/14 05:35:47;;;;;;;5.28;3.22;;;4.60;94.60;;;;;;5012465;28;20112;-80
2021/03/14 05:38:12;;;;;;;5.03;3.50;;;4.50;95.70;;;;;;5011061;28;20029;-79
2021/03/14 05:40:38;;;;;;;5.95;2.97;;;4.50;95.90;;;;;;5012956;28;20121;-79
2021/03/14 05:43:05;;;;;;;5.40;3.65;;;4.50;96.30;;;;;;5011127;28;20551;-79
2021/03/14 05:45:31;;;;;;;7.00;3.60;;;4.50;96.30;;;;;;5012698;28;20046;-80
2021/03/14 05:47:57;;;;;;;7.45;3.60;;;4.50;96.80;;;;;;5012567;28;20026;-79
2021/03/14 05:50:28;;;;;;;4.38;3.30;;;4.50;96.50;;;;;;5012514;28;20060;-79
2021/03/14 05:52:55;;;;;;;9.93;4.47;;;4.50;97.00;;;;;;5013687;28;20025;-79
2021/03/14 05:55:23;;;;;;;5.25;3.13;;;4.60;95.90;;;;;;5012145;28;20026;-80
2021/03/14 05:57:54;;;;;;;6.38;3.00;;;4.60;95.60;;;;;;5012229;28;20502;-79
2021/03/14 06:00:27;;;;;;;4.63;2.75;;;4.70;95.90;;;;;;5012058;28;20022;-80
2021/03/14 06:02:54;;;;;;;5.10;2.30;;;4.80;94.70;;;;;;5012116;28;20462;-80
2021/03/14 06:05:20;;;;;;;3.40;2.40;;;4.90;95.30;;;;;;5013289;28;20403;-79
2021/03/14 06:07:46;;;;;;;3.85;2.28;;;5.00;93.30;;;;;;5013344;28;20029;-80
2021/03/14 06:10:14;;;;;;;3.08;1.85;;;5.00;93.00;;;;;;5011110;28;20026;-80
2021/03/14 06:12:40;;;;;;;3.15;2.30;;;5.00;91.60;;;;;;5013461;28;20349;-80
2021/03/14 06:15:06;;;;;;;3.17;1.70;;;5.00;91.90;;;;;;5013192;28;20398;-80
2021/03/14 06:17:34;;;;;;;3.22;2.22;;;5.10;91.10;;;;;;5013347;28;20399;-81
2021/03/14 06:20:00;;;;;;;2.97;2.25;;;5.10;90.70;;;;;;5012576;28;20046;-81
2021/03/14 06:22:26;;;;;;;2.83;2.20;;;5.10;90.30;;;;;;5011899;28;20121;-80
2021/03/14 06:24:53;;;;;;;4.55;2.75;;;5.10;90.30;;;;;;5011273;28;20087;-79
2021/03/14 06:27:51;;;;;;;2.78;2.38;;;5.20;90.00;;;;;;5013262;28;20022;-80
2021/03/14 06:30:18;;;;;;;2.40;2.20;;;5.30;89.70;;;;;;5013213;28;20167;-80
2021/03/14 06:33:20;;;;;;;3.53;2.53;;;5.30;90.20;;;;;;5012961;28;20076;-80
2021/03/14 06:35:46;;;;;;;3.10;2.80;;;5.30;89.10;;;;;;4936318;29;20023;-80
2021/03/14 06:38:26;;;;;;;4.28;2.40;;;5.40;89.40;;;;;;5000783;28;20037;-80
2021/03/14 06:41:17;;;;;;;4.75;2.92;;;5.30;89.00;;;;;;5010100;28;20099;-80
2021/03/14 06:43:54;;;;;;;6.25;2.58;;;5.30;88.90;;;;;;5009496;28;20407;-80
2021/03/14 06:46:23;;;;;;;3.75;2.50;;;5.30;87.70;;;;;;5011225;28;20038;-78
2021/03/14 06:49:10;;;;;;;2.58;2.38;;;5.40;88.00;;;;;;5012684;28;20030;-79
2021/03/14 06:51:44;;;;;;;3.60;2.55;;;5.30;88.60;;;;;;5012531;28;20030;-80
2021/03/14 06:54:16;;;;;;;4.80;2.50;;;5.40;88.80;;;;;;5010977;28;20109;-80
2021/03/14 06:56:42;;;;;;;4.90;2.65;;;5.50;88.30;;;;;;5007878;28;20030;-80
2021/03/14 06:59:19;;;;;;;2.80;2.03;;;5.50;86.80;;;;;;5008010;28;20026;-80
2021/03/14 07:02:01;;;;;;;4.93;2.78;;;5.60;86.20;;;;;;5006854;28;20065;-80
2021/03/14 07:04:36;;;;;;;7.78;4.30;;;5.60;87.40;;;;;;5007520;28;20471;-80
2021/03/14 07:07:03;;;;;;;5.30;3.15;;;5.60;86.20;;;;;;5011820;28;20491;-80
2021/03/14 07:09:29;;;;;;;4.85;2.90;;;5.60;85.20;;;;;;5010252;28;20056;-79
2021/03/14 07:11:55;;;;;;;7.70;3.78;;;5.70;86.00;;;;;;5012451;28;20365;-79
2021/03/14 07:14:21;;;;;;;5.53;3.70;;;5.70;86.20;;;;;;5009949;28;20045;-79
2021/03/14 07:16:50;;;;;;;7.38;3.75;;;5.70;84.30;;;;;;5010938;28;20054;-79
2021/03/14 07:19:21;;;;;;;5.70;3.45;;;5.70;84.10;;;;;;5012116;28;20022;-79
2021/03/14 07:22:10;;;;;;;8.93;3.70;;;5.60;84.70;;;;;;5010720;28;20025;-78
2021/03/14 07:24:39;;;;;;;6.97;3.95;;;5.60;83.30;;;;;;5009181;28;20068;-81
2021/03/14 07:27:07;;;;;;;8.40;3.85;;;5.70;84.50;;;;;;5008663;28;20121;-78
2021/03/14 07:29:36;;;;;;;5.43;3.22;;;5.80;82.90;;;;;;5010044;28;20058;-78
2021/03/14 07:32:04;;;;;;;6.85;3.83;;;5.90;81.20;;;;;;5006441;28;20026;-79
2021/03/14 07:34:31;;;;;;;4.30;3.50;;;5.90;81.30;;;;;;5009851;28;20460;-78
2021/03/14 07:36:57;;;;;;;8.35;3.72;;;5.90;82.30;;;;;;5008500;28;20072;-79
2021/03/14 07:39:22;;;;;;;5.88;3.85;;;5.90;81.80;;;;;;5009082;28;20514;-79
2021/03/14 07:41:49;;;;;;;6.40;3.67;;;6.00;81.50;;;;;;5009776;28;20018;-79
2021/03/14 07:44:19;;;;;;;7.80;4.43;;;6.00;81.30;;;;;;5009254;28;20014;-82
2021/03/14 07:46:45;;;;;;;5.82;4.53;;;6.10;81.90;;;;;;5004298;28;20034;-79
2021/03/14 07:49:13;;;;;;;6.82;3.97;;;6.10;80.50;;;;;;5009034;28;20037;-79
2021/03/14 07:51:45;;;;;;;7.25;3.40;;;6.30;81.10;;;;;;5006606;28;20030;-79
2021/03/14 07:54:16;;;;;;;7.75;3.80;;;6.30;78.70;;;;;;5008508;28;20422;-78
2021/03/14 07:56:46;;;;;;;7.25;3.20;;;6.40;78.90;;;;;;5008853;28;20045;-78
2021/03/14 07:59:11;;;;;;;7.03;3.58;;;6.40;78.00;;;;;;5010577;28;20022;-78
2021/03/14 08:01:38;;;;;;;6.60;4.10;;;6.40;77.90;;;;;;5009084;28;20025;-78
2021/03/14 08:04:31;;;;;;;4.30;2.72;;;6.60;80.80;;;;;;5008931;28;20030;-78
2021/03/14 08:06:57;;;;;;;7.68;3.90;;;6.60;77.50;;;;;;5009330;28;20356;-79
2021/03/14 08:09:42;;;;;;;4.90;3.05;;;6.60;78.20;;;;;;5009672;28;20033;-78
2021/03/14 08:12:21;;;;;;;9.77;4.22;;;6.60;76.20;;;;;;5011767;28;20032;-78
2021/03/14 08:14:50;;;;;;;8.85;3.80;;;6.80;76.90;;;;;;5009350;28;20022;-76
2021/03/14 08:17:20;;;;;;;4.65;2.45;;;6.90;77.70;;;;;;5011093;28;20026;-77
2021/03/14 08:19:47;;;;;;;5.10;2.75;;;7.00;74.10;;;;;;5006823;28;20499;-79
2021/03/14 08:22:39;;;;;;;5.53;2.92;;;7.10;74.60;;;;;;5008117;28;20018;-80
2021/03/14 08:25:25;;;;;;;4.88;3.40;;;7.20;74.80;;;;;;5007397;28;20038;-80
2021/03/14 08:27:59;;;;;;;4.75;3.00;;;7.40;73.10;;;;;;5004436;28;20037;-81
2021/03/14 08:30:31;;;;;;;8.15;4.18;;;7.40;72.20;;;;;;5006488;28;20036;-80
2021/03/14 08:33:32;;;;;;;5.85;4.82;;;7.50;72.50;;;;;;5013115;28;20088;-79
2021/03/14 08:36:04;;;;;;;7.90;4.40;;;7.60;72.70;;;;;;5011191;28;20025;-79
2021/03/14 08:38:32;;;;;;;8.95;3.65;;;7.60;70.50;;;;;;5014918;28;20010;-78
2021/03/14 08:41:27;;;;;;;17.73;7.55;;;7.50;70.10;;;;;;5002191;28;20037;-79
2021/03/14 08:44:04;;;;;;;10.45;5.53;;;7.60;71.40;;;;;;5013224;28;20026;-78
2021/03/14 08:46:56;;;;;;;9.27;4.55;;;7.50;70.10;;;;;;5012335;28;20189;-79
2021/03/14 08:49:23;;;;;;;15.73;7.80;;;7.60;70.20;;;;;;5012538;28;20121;-78
2021/03/14 08:51:50;;;;;;;6.40;4.68;;;7.70;69.80;;;;;;5014027;28;20026;-78
2021/03/14 08:54:23;;;;;;;10.77;5.13;;;7.80;69.40;;;;;;5008993;28;20059;-80
2021/03/14 08:56:53;;;;;;;6.55;4.05;;;7.80;69.70;;;;;;5014508;28;20105;-77
2021/03/14 08:59:20;;;;;;;12.52;6.03;;;7.70;67.80;;;;;;5012027;28;20026;-77
2021/03/14 09:01:54;;;;;;;9.75;4.38;;;7.70;68.20;;;;;;5025783;28;20023;-80
2021/03/14 09:04:30;;;;;;;17.00;8.15;;;7.70;68.30;;;;;;5006013;28;20120;-78
2021/03/14 09:07:10;;;;;;;11.15;5.00;;;7.70;69.40;;;;;;5013996;28;20502;-77
2021/03/14 09:09:37;;;;;;;12.82;7.72;;;7.50;68.50;;;;;;5010579;28;20026;-78
2021/03/14 09:12:13;;;;;;;8.75;5.53;;;7.50;68.90;;;;;;5011351;28;20022;-78
2021/03/14 09:14:44;;;;;;;19.05;7.93;;;7.40;70.10;;;;;;5008611;28;20034;-78
2021/03/14 09:17:13;;;;;;;19.65;7.72;;;7.40;68.50;;;;;;5010411;28;20116;-78
2021/03/14 09:19:50;;;;;;;28.05;11.50;;;7.30;68.70;;;;;;5008397;28;20018;-77
2021/03/14 09:22:20;;;;;;;23.67;15.80;;;7.20;67.40;;;;;;5010483;28;20510;-77
2021/03/14 09:24:47;;;;;;;21.27;8.73;;;7.20;69.40;;;;;;5017399;28;20130;-77
2021/03/14 09:27:16;;;;;;;31.67;11.23;;;7.20;70.50;;;;;;5026223;28;20034;-78
2021/03/14 09:29:51;;;;;;;11.77;6.70;;;7.20;70.90;;;;;;5008266;28;20026;-78
2021/03/14 09:32:22;;;;;;;27.63;9.32;;;7.40;70.30;;;;;;5013546;28;20029;-80
2021/03/14 09:34:49;;;;;;;29.65;12.32;;;7.50;69.00;;;;;;5013313;28;20026;-76
2021/03/14 09:37:31;;;;;;;12.70;6.47;;;7.70;70.40;;;;;;5013672;28;20057;-77
2021/03/14 09:40:25;;;;;;;27.00;10.75;;;7.70;68.30;;;;;;5011784;28;20030;-77
2021/03/14 09:43:23;;;;;;;9.23;5.15;;;7.90;67.70;;;;;;5013362;28;20076;-77
2021/03/14 09:45:55;;;;;;;11.93;6.60;;;7.70;64.60;;;;;;5009650;28;20132;-77
2021/03/14 09:48:24;;;;;;;14.90;6.75;;;7.60;64.50;;;;;;5009425;28;20041;-77
2021/03/14 09:50:54;;;;;;;16.15;8.00;;;7.60;64.90;;;;;;5010549;28;20037;-77
2021/03/14 09:53:39;;;;;;;23.30;10.75;;;7.70;65.60;;;;;;5006811;28;20395;-78
2021/03/14 09:56:11;;;;;;;27.38;13.65;;;7.70;66.20;;;;;;5010088;28;20475;-78
2021/03/14 09:58:37;;;;;;;20.75;9.02;;;7.70;64.10;;;;;;5006222;28;20120;-78
2021/03/14 10:01:06;;;;;;;30.05;13.20;;;7.70;62.40;;;;;;5002310;28;20022;-79
2021/03/14 10:03:33;;;;;;;22.23;9.93;;;7.80;63.40;;;;;;4999984;28;20077;-78
2021/03/14 10:06:04;;;;;;;40.95;12.20;;;7.90;62.30;;;;;;5000064;28;20117;-78
2021/03/14 10:08:35;;;;;;;17.85;9.30;;;8.00;60.40;;;;;;5009645;28;20452;-77
2021/03/14 10:11:06;;;;;;;19.38;7.85;;;8.00;62.60;;;;;;5012212;28;20018;-77
2021/03/14 10:13:33;;;;;;;13.75;5.47;;;7.90;61.50;;;;;;5009667;28;20489;-77
2021/03/14 10:16:02;;;;;;;14.02;5.88;;;7.80;60.80;;;;;;5007598;28;20471;-78
2021/03/14 10:18:30;;;;;;;7.70;4.22;;;7.80;61.60;;;;;;5007579;28;20029;-79
2021/03/14 10:21:26;;;;;;;20.17;7.45;;;7.60;60.00;;;;;;5005296;28;20493;-80
2021/03/14 10:23:53;;;;;;;44.58;24.77;;;7.60;61.70;;;;;;5008443;28;20077;-79
2021/03/14 10:26:19;;;;;;;15.52;7.93;;;7.70;62.70;;;;;;5008848;28;20072;-79
2021/03/14 10:28:47;;;;;;;30.70;17.73;;;7.60;60.60;;;;;;5010180;28;20060;-78
2021/03/14 10:31:15;;;;;;;14.65;8.00;;;7.60;59.80;;;;;;5011633;28;20147;-79
2021/03/14 10:33:44;;;;;;;26.98;8.77;;;7.70;60.50;;;;;;5010841;28;20026;-78
2021/03/14 10:36:12;;;;;;;12.90;7.45;;;7.70;59.30;;;;;;5007947;28;20075;-78
2021/03/14 10:38:46;;;;;;;15.07;7.82;;;7.70;59.20;;;;;;5011584;28;20033;-80
2021/03/14 10:41:13;;;;;;;21.95;13.00;;;7.70;60.40;;;;;;5010474;28;20029;-80
2021/03/14 10:43:49;;;;;;;19.75;10.70;;;7.70;60.50;;;;;;5008646;28;20113;-80
2021/03/14 10:46:31;;;;;;;36.95;19.08;;;7.70;59.00;;;;;;5009934;28;20541;-81
2021/03/14 10:49:17;;;;;;;22.55;10.40;;;7.60;57.90;;;;;;5007979;28;20025;-80
2021/03/14 10:51:48;;;;;;;21.67;9.68;;;7.50;57.40;;;;;;5010631;28;20029;-81
2021/03/14 10:54:15;;;;;;;90.65;34.13;;;7.60;57.90;;;;;;5010545;28;20021;-81
2021/03/14 10:56:42;;;;;;;42.50;24.63;;;7.60;58.30;;;;;;5011974;28;20502;-81
2021/03/14 10:59:22;;;;;;;33.42;20.80;;;7.80;58.10;;;;;;5011694;28;20523;-80
2021/03/14 11:01:52;;;;;;;36.67;12.98;;;7.80;57.70;;;;;;5007201;28;20025;-82
2021/03/14 11:04:36;;;;;;;31.00;11.15;;;7.70;58.20;;;;;;5009506;28;20054;-82
2021/03/14 11:07:27;;;;;;;18.05;8.32;;;7.70;58.60;;;;;;5008885;28;20037;-81
2021/03/14 11:10:09;;;;;;;30.33;18.88;;;7.70;59.10;;;;;;5007986;28;20471;-81
2021/03/14 11:12:37;;;;;;;15.35;7.60;;;7.70;58.80;;;;;;5008775;28;20693;-81
2021/03/14 11:15:05;;;;;;;12.70;7.72;;;7.60;58.10;;;;;;5010942;28;20037;-81
2021/03/14 11:17:34;;;;;;;16.27;7.88;;;7.60;58.40;;;;;;5009225;28;20419;-81
2021/03/14 11:20:00;;;;;;;24.42;12.05;;;7.70;58.80;;;;;;5009613;28;20104;-84
2021/03/14 11:22:26;;;;;;;17.52;8.77;;;7.80;59.10;;;;;;5010134;28;20141;-82
2021/03/14 11:24:51;;;;;;;19.48;11.05;;;7.90;57.40;;;;;;5008434;28;20440;-81
2021/03/14 11:27:18;;;;;;;33.28;20.70;;;8.00;57.50;;;;;;5010632;28;20033;-80
2021/03/14 11:29:44;;;;;;;23.77;13.10;;;8.10;57.00;;;;;;5008412;28;20091;-82
2021/03/14 11:32:13;;;;;;;14.10;8.10;;;8.20;56.80;;;;;;5009291;28;20021;-80
2021/03/14 11:34:39;;;;;;;45.83;19.95;;;8.20;54.40;;;;;;5006850;28;20026;-81
2021/03/14 11:37:05;;;;;;;79.55;32.90;;;8.30;53.30;;;;;;5004772;28;20038;-82
2021/03/14 11:39:31;;;;;;;46.67;17.13;;;8.30;52.30;;;;;;5007282;28;20087;-80
2021/03/14 11:41:56;;;;;;;10.38;6.28;;;8.40;52.40;;;;;;5009408;28;20036;-80
2021/03/14 11:44:22;;;;;;;31.52;21.75;;;8.40;52.20;;;;;;5008280;28;20025;-81
2021/03/14 11:46:47;;;;;;;18.83;8.70;;;8.40;52.20;;;;;;5009463;28;20041;-81
2021/03/14 11:49:14;;;;;;;12.88;6.47;;;8.30;52.50;;;;;;5004646;28;20092;-81
2021/03/14 11:51:39;;;;;;;17.70;10.88;;;8.40;53.50;;;;;;5008638;28;20072;-81
2021/03/14 11:54:05;;;;;;;20.23;9.63;;;8.50;53.70;;;;;;5005632;28;20030;-81
2021/03/14 11:56:31;;;;;;;12.02;7.05;;;8.50;54.10;;;;;;5004546;28;20029;-80
2021/03/14 11:58:58;;;;;;;28.25;12.55;;;8.80;53.00;;;;;;5007825;28;20105;-79
2021/03/14 12:01:27;;;;;;;57.17;22.30;;;9.10;52.50;;;;;;5009758;28;20030;-79
2021/03/14 12:03:53;;;;;;;18.95;9.75;;;9.30;50.20;;;;;;5005800;28;20099;-80
2021/03/14 12:06:20;;;;;;;10.52;5.25;;;9.30;48.20;;;;;;5014668;28;20080;-82
2021/03/14 12:08:46;;;;;;;34.33;15.48;;;9.20;47.50;;;;;;5013606;28;20026;-80
2021/03/14 12:11:12;;;;;;;10.88;5.93;;;9.20;46.70;;;;;;5013297;28;20049;-81
2021/03/14 12:13:38;;;;;;;62.72;27.80;;;9.20;46.10;;;;;;5015532;28;20033;-81
2021/03/14 12:16:05;;;;;;;29.05;11.02;;;9.20;45.50;;;;;;5013017;28;20025;-81
2021/03/14 12:18:31;;;;;;;27.73;12.98;;;9.30;45.70;;;;;;5011581;28;20022;-81
2021/03/14 12:20:57;;;;;;;16.45;9.05;;;9.30;45.60;;;;;;5013788;28;20033;-82
2021/03/14 12:23:24;;;;;;;21.23;10.13;;;9.10;45.50;;;;;;5012847;28;20030;-82
2021/03/14 12:25:50;;;;;;;32.17;12.80;;;9.00;45.10;;;;;;5009882;28;20124;-80
2021/03/14 12:28:16;;;;;;;40.15;15.70;;;8.80;45.40;;;;;;5011722;28;20110;-80
2021/03/14 12:30:42;;;;;;;39.72;15.80;;;8.90;45.60;;;;;;5013896;28;20034;-81
2021/03/14 12:33:08;;;;;;;49.42;17.70;;;8.90;45.00;;;;;;5014089;28;20037;-81
2021/03/14 12:35:35;;;;;;;51.85;20.65;;;9.00;45.20;;;;;;5012669;28;20021;-81
2021/03/14 12:38:01;;;;;;;37.90;16.52;;;9.00;44.70;;;;;;5008672;28;20018;-80
2021/03/14 12:40:27;;;;;;;32.28;13.23;;;9.00;44.90;;;;;;5009905;28;20479;-81
2021/03/14 12:42:53;;;;;;;35.15;13.70;;;9.00;45.10;;;;;;5010854;28;20065;-79
2021/03/14 12:45:20;;;;;;;46.97;20.00;;;8.90;45.90;;;;;;5014590;28;20078;-80
2021/03/14 12:47:46;;;;;;;35.47;14.38;;;8.90;46.40;;;;;;5014882;28;20380;-80
2021/03/14 12:50:13;;;;;;;31.77;14.18;;;8.80;45.50;;;;;;5011606;28;20022;-81
2021/03/14 12:52:39;;;;;;;24.88;12.57;;;8.80;46.40;;;;;;5012952;28;20097;-79
2021/03/14 12:55:08;;;;;;;30.85;13.88;;;8.90;46.70;;;;;;5011132;28;20040;-81
2021/03/14 12:57:35;;;;;;;32.72;12.45;;;8.90;47.00;;;;;;5009245;28;20527;-79
2021/03/14 13:00:03;;;;;;;15.27;6.93;;;8.90;47.20;;;;;;5011768;28;20052;-79
2021/03/14 13:02:29;;;;;;;32.38;14.15;;;8.90;47.10;;;;;;5013827;28;20092;-80